CheckWX is a tool to help pilots better visualize weather data.  It is not intended as a substitute for an official pre-flight weather briefing.

21:42:35 UTC

KDRA METAR
Desert Rock Airport
Mercury, Nevada, USA
Current

47 mins ago

KDRA 232056Z AUTO 22008G16KT 10SM CLR 09/M14 A3023 RMK AO2 SLP236 T00941139 58009
Observed
Feb-23 @ 20:56 UTC
Wind
  • 220° at 8 KTS
  • Gusting to 16 KTS
Visibility
10 SM
Flight Rules
VFR
Cloud Levels
  • Clear skies
Temperature
C / 48°F
Dewpoint
-14°C / 7°F
Humidity
18%
Altimeter
30.23" Hg
Pressure
1023.6 hPa
Previous

2 hours ago

KDRA 231956Z AUTO 23008KT 10SM CLR 08/M13 A3025 RMK AO2 SLP243 T00831128
Observed
Feb-23 @ 19:56 UTC
Wind
  • 230° at 8 KTS
Visibility
10 SM
Flight Rules
VFR
Cloud Levels
  • Clear skies
Temperature
C / 46°F
Dewpoint
-13°C / 9°F
Humidity
21%
Altimeter
30.25" Hg
Pressure
1024.3 hPa
Previous

3 hours ago

KDRA 231856Z AUTO 00000KT 10SM CLR 07/M13 A3025 RMK AO2 SLP244 T00671128
Observed
Feb-23 @ 18:56 UTC
Visibility
10 SM
Flight Rules
VFR
Cloud Levels
  • Clear skies
Temperature
C / 45°F
Dewpoint
-13°C / 9°F
Humidity
23%
Altimeter
30.25" Hg
Pressure
1024.4 hPa